createdAt,value
2023-01-11T00:01:55.409Z,0.93
2023-01-11T00:04:23.376Z,0.85
2023-01-11T00:06:50.026Z,3.47
2023-01-11T00:09:17.143Z,1.27
2023-01-11T00:11:43.710Z,1.08
2023-01-11T00:14:10.253Z,3.10
2023-01-11T00:16:37.626Z,1.10
2023-01-11T00:19:04.481Z,1.30
2023-01-11T00:21:31.457Z,1.50
2023-01-11T00:23:58.112Z,2.78
2023-01-11T00:26:24.763Z,1.60
2023-01-11T00:28:52.545Z,2.42
2023-01-11T00:31:19.198Z,1.40
2023-01-11T00:33:45.918Z,1.00
2023-01-11T00:36:13.033Z,1.05
2023-01-11T00:38:51.830Z,1.48
2023-01-11T00:41:39.142Z,1.38
2023-01-11T00:44:24.712Z,1.55
2023-01-11T00:47:10.554Z,1.73
2023-01-11T00:49:37.777Z,0.60
2023-01-11T00:52:09.703Z,2.38
2023-01-11T00:54:38.023Z,1.17
2023-01-11T00:57:06.439Z,1.13
2023-01-11T00:59:39.958Z,1.38
2023-01-11T01:02:08.113Z,1.23
2023-01-11T01:04:34.859Z,2.20
2023-01-11T01:07:02.053Z,1.63
2023-01-11T01:09:29.468Z,1.67
2023-01-11T01:11:56.050Z,0.88
2023-01-11T01:14:26.613Z,0.75
2023-01-11T01:17:14.152Z,0.98
2023-01-11T01:19:41.150Z,3.13
2023-01-11T01:22:07.947Z,1.05
2023-01-11T01:24:35.075Z,1.10
2023-01-11T01:27:02.126Z,1.35
2023-01-11T01:29:29.485Z,1.02
2023-01-11T01:31:56.035Z,0.98
2023-01-11T01:34:22.561Z,0.65
2023-01-11T01:36:49.090Z,1.45
2023-01-11T01:39:16.133Z,1.48
2023-01-11T01:41:43.148Z,0.75
2023-01-11T01:44:47.373Z,0.77
2023-01-11T01:47:15.588Z,0.85
2023-01-11T01:49:43.386Z,0.50
2023-01-11T01:52:11.617Z,2.58
2023-01-11T01:54:44.177Z,0.43
2023-01-11T01:57:17.064Z,0.52
2023-01-11T01:59:44.036Z,0.30
2023-01-11T02:02:11.808Z,1.10
2023-01-11T02:04:44.120Z,0.63
2023-01-11T02:07:14.789Z,1.27
2023-01-11T02:09:59.716Z,1.15
2023-01-11T02:12:30.374Z,1.15
2023-01-11T02:15:00.346Z,1.25
2023-01-11T02:17:28.119Z,3.03
2023-01-11T02:20:03.509Z,1.10
2023-01-11T02:22:56.994Z,0.70
2023-01-11T02:25:50.689Z,1.30
2023-01-11T02:28:23.043Z,0.88
2023-01-11T02:31:26.731Z,1.60
2023-01-11T02:34:07.103Z,0.50
2023-01-11T02:36:48.433Z,0.73
2023-01-11T02:39:58.391Z,0.77
2023-01-11T02:42:53.995Z,0.80
2023-01-11T02:45:50.928Z,1.15
2023-01-11T02:48:20.185Z,0.47
2023-01-11T02:50:46.690Z,0.82
2023-01-11T02:53:26.078Z,0.65
2023-01-11T02:55:58.573Z,0.73
2023-01-11T02:58:30.322Z,0.40
2023-01-11T03:00:58.523Z,0.55
2023-01-11T03:03:29.528Z,0.98
2023-01-11T03:05:59.104Z,0.55
2023-01-11T03:08:51.579Z,1.77
2023-01-11T03:11:53.254Z,1.08
2023-01-11T03:14:51.120Z,1.05
2023-01-11T03:17:26.896Z,1.85
2023-01-11T03:20:28.925Z,0.80
2023-01-11T03:23:20.407Z,0.73
2023-01-11T03:26:03.570Z,0.82
2023-01-11T03:28:41.961Z,2.78
2023-01-11T03:31:22.877Z,1.10
2023-01-11T03:34:24.530Z,5.40
2023-01-11T03:37:34.634Z,1.65
2023-01-11T03:40:13.897Z,1.38
2023-01-11T03:43:04.515Z,1.60
2023-01-11T03:45:36.232Z,2.20
2023-01-11T03:48:06.423Z,1.85
2023-01-11T03:50:34.515Z,2.42
2023-01-11T03:53:06.042Z,2.83
2023-01-11T03:55:39.192Z,1.00
2023-01-11T03:58:06.669Z,1.33
2023-01-11T04:00:33.741Z,2.90
2023-01-11T04:03:01.442Z,4.53
2023-01-11T04:05:29.169Z,2.03
2023-01-11T04:07:56.425Z,4.10
2023-01-11T04:10:22.978Z,5.45
2023-01-11T04:12:49.870Z,3.97
2023-01-11T04:15:17.174Z,4.93
2023-01-11T04:17:44.379Z,5.47
2023-01-11T04:20:12.804Z,5.78
2023-01-11T04:22:39.400Z,4.43
2023-01-11T04:25:06.416Z,6.03
2023-01-11T04:27:33.066Z,6.00
2023-01-11T04:29:59.648Z,4.45
2023-01-11T04:32:26.719Z,4.60
2023-01-11T04:34:53.793Z,10.57
2023-01-11T04:37:21.406Z,6.35
2023-01-11T04:39:48.410Z,8.23
2023-01-11T04:42:21.242Z,8.63
2023-01-11T04:44:49.754Z,12.10
2023-01-11T04:47:17.714Z,6.43
2023-01-11T04:49:45.798Z,13.23
2023-01-11T04:52:14.334Z,7.35
2023-01-11T04:54:41.027Z,10.13
2023-01-11T04:57:12.306Z,11.13
2023-01-11T04:59:38.955Z,9.23
2023-01-11T05:02:05.539Z,8.10
2023-01-11T05:04:32.182Z,14.20
2023-01-11T05:06:59.312Z,8.20
2023-01-11T05:09:26.929Z,13.93
2023-01-11T05:11:53.450Z,7.65
2023-01-11T05:14:20.536Z,12.43
2023-01-11T05:16:47.625Z,11.55
2023-01-11T05:19:14.742Z,7.45
2023-01-11T05:21:42.417Z,9.40
2023-01-11T05:24:18.114Z,8.35
2023-01-11T05:26:45.953Z,9.95
2023-01-11T05:29:16.222Z,13.90
2023-01-11T05:31:43.553Z,10.70
2023-01-11T05:34:12.618Z,13.70
2023-01-11T05:36:39.653Z,8.02
2023-01-11T05:39:07.258Z,6.22
2023-01-11T05:41:35.473Z,10.02
2023-01-11T05:44:20.742Z,13.82
2023-01-11T05:46:47.343Z,11.30
2023-01-11T05:49:14.395Z,10.32
2023-01-11T05:51:42.512Z,9.65
2023-01-11T05:54:14.462Z,12.98
2023-01-11T05:56:42.571Z,9.52
2023-01-11T05:59:09.538Z,8.30
2023-01-11T06:01:36.495Z,7.10
2023-01-11T06:04:03.592Z,5.22
2023-01-11T06:06:30.224Z,9.52
2023-01-11T06:08:56.856Z,8.13
2023-01-11T06:11:23.464Z,7.63
2023-01-11T06:13:50.057Z,10.85
2023-01-11T06:16:19.492Z,6.53
2023-01-11T06:18:48.984Z,13.63
2023-01-11T06:21:16.892Z,10.02
2023-01-11T06:23:46.518Z,9.77
2023-01-11T06:26:16.595Z,9.25
2023-01-11T06:28:44.443Z,8.70
2023-01-11T06:31:12.260Z,9.52
2023-01-11T06:33:39.554Z,9.07
2023-01-11T06:36:08.864Z,10.82
2023-01-11T06:38:36.017Z,6.63
2023-01-11T06:41:05.857Z,8.48
2023-01-11T06:43:32.791Z,8.43
2023-01-11T06:46:00.197Z,7.43
2023-01-11T06:48:27.855Z,9.43
2023-01-11T06:50:57.046Z,10.65
2023-01-11T06:53:28.081Z,6.72
2023-01-11T06:55:57.417Z,9.73
2023-01-11T06:58:25.603Z,8.52
2023-01-11T07:00:53.540Z,9.63
2023-01-11T07:03:20.891Z,11.68
2023-01-11T07:05:48.124Z,6.97
2023-01-11T07:08:14.647Z,7.97
2023-01-11T07:10:42.190Z,12.85
2023-01-11T07:13:09.717Z,7.15
2023-01-11T07:15:36.958Z,8.98
2023-01-11T07:18:04.137Z,4.63
2023-01-11T07:20:30.761Z,12.55
2023-01-11T07:22:59.394Z,9.13
2023-01-11T07:25:27.842Z,11.60
2023-01-11T07:27:59.415Z,6.65
2023-01-11T07:30:28.707Z,6.38
2023-01-11T07:32:58.677Z,12.95
2023-01-11T07:35:28.084Z,5.53
2023-01-11T07:37:56.044Z,6.38
2023-01-11T07:40:22.637Z,7.60
2023-01-11T07:43:14.343Z,5.15
2023-01-11T07:45:46.613Z,5.07
2023-01-11T07:48:16.078Z,5.32
2023-01-11T07:50:45.125Z,5.57
2023-01-11T07:53:12.482Z,5.60
2023-01-11T07:55:39.841Z,7.95
2023-01-11T07:58:08.362Z,10.98
2023-01-11T08:00:34.931Z,3.47
2023-01-11T08:03:02.317Z,6.97
2023-01-11T08:05:30.138Z,6.28
2023-01-11T08:07:56.725Z,5.97
2023-01-11T08:10:23.431Z,5.60
2023-01-11T08:13:09.252Z,5.15
2023-01-11T08:15:42.505Z,5.70
2023-01-11T08:18:11.492Z,6.40
2023-01-11T08:20:39.031Z,3.50
2023-01-11T08:23:08.029Z,5.00
2023-01-11T08:25:35.279Z,5.82
2023-01-11T08:28:03.490Z,3.65
2023-01-11T08:30:30.504Z,4.15
2023-01-11T08:32:57.673Z,2.03
2023-01-11T08:35:27.405Z,3.22
2023-01-11T08:37:54.318Z,6.03
2023-01-11T08:40:26.155Z,9.45
2023-01-11T08:42:57.044Z,6.03
2023-01-11T08:45:24.386Z,3.88
2023-01-11T08:47:51.941Z,6.45
2023-01-11T08:50:19.227Z,4.30
2023-01-11T08:52:46.839Z,8.15
2023-01-11T08:55:13.521Z,3.28
2023-01-11T08:57:41.086Z,4.88
2023-01-11T09:00:08.633Z,2.20
2023-01-11T09:02:35.313Z,4.50
2023-01-11T09:05:01.983Z,4.88
2023-01-11T09:07:28.585Z,5.10
2023-01-11T09:09:55.664Z,5.93
2023-01-11T09:12:22.290Z,3.75
2023-01-11T09:14:48.896Z,5.65
2023-01-11T09:17:15.947Z,3.83
2023-01-11T09:19:42.592Z,3.17
2023-01-11T09:22:09.162Z,2.42
2023-01-11T09:24:36.218Z,5.55
2023-01-11T09:27:04.795Z,3.58
2023-01-11T09:29:32.055Z,3.33
2023-01-11T09:31:59.297Z,2.03
2023-01-11T09:34:27.352Z,4.82
2023-01-11T09:36:56.117Z,4.72
2023-01-11T09:39:25.831Z,4.93
2023-01-11T09:42:35.465Z,2.30
2023-01-11T09:45:17.532Z,2.47
2023-01-11T09:47:53.183Z,2.28
2023-01-11T09:50:29.410Z,3.30
2023-01-11T09:53:24.417Z,2.08
2023-01-11T09:55:52.912Z,2.67
2023-01-11T09:58:56.472Z,2.70
2023-01-11T10:01:53.708Z,2.88
2023-01-11T10:05:10.859Z,3.85
2023-01-11T10:18:29.451Z,3.10
2023-01-11T10:18:34.249Z,5.25
2023-01-11T10:20:35.487Z,3.20
2023-01-11T10:23:07.892Z,3.47
2023-01-11T10:25:47.969Z,2.03
2023-01-11T10:28:25.097Z,1.10
2023-01-11T10:31:11.146Z,3.90
2023-01-11T10:33:46.569Z,4.68
2023-01-11T10:37:00.845Z,3.38
2023-01-11T10:39:55.659Z,2.35
2023-01-11T10:42:26.389Z,4.35
2023-01-11T10:45:00.102Z,2.97
2023-01-11T10:47:50.786Z,2.20
2023-01-11T10:50:41.727Z,3.38
2023-01-11T10:53:20.032Z,2.63
2023-01-11T10:56:08.322Z,5.13
2023-01-11T10:59:15.340Z,5.63
2023-01-11T11:01:41.887Z,12.48
2023-01-11T11:04:23.113Z,5.75
2023-01-11T11:07:12.658Z,2.97
2023-01-11T11:10:05.815Z,3.05
2023-01-11T11:12:36.600Z,2.63
2023-01-11T11:15:26.505Z,6.70
2023-01-11T11:17:54.605Z,4.45
2023-01-11T11:20:24.759Z,3.70
2023-01-11T11:22:53.163Z,2.17
2023-01-11T11:25:48.649Z,3.15
2023-01-11T11:28:15.158Z,5.53
2023-01-11T11:30:45.165Z,3.67
2023-01-11T11:33:22.600Z,5.07
2023-01-11T11:35:59.763Z,3.15
2023-01-11T11:38:30.111Z,4.95
2023-01-11T11:41:08.599Z,2.53
2023-01-11T11:43:37.399Z,2.78
2023-01-11T11:46:20.404Z,3.78
2023-01-11T11:49:08.669Z,2.40
2023-01-11T11:51:35.988Z,4.68
2023-01-11T11:54:03.145Z,4.25
2023-01-11T11:56:41.834Z,3.22
2023-01-11T11:59:13.985Z,3.10
2023-01-11T12:01:47.309Z,5.45
2023-01-11T12:04:31.772Z,4.78
2023-01-11T12:07:15.983Z,3.63
2023-01-11T12:09:47.650Z,4.90
2023-01-11T12:12:20.262Z,2.45
2023-01-11T12:15:08.774Z,3.67
2023-01-11T12:17:35.533Z,3.83
2023-01-11T12:20:02.067Z,3.42
2023-01-11T12:22:29.168Z,4.32
2023-01-11T12:25:05.032Z,5.00
2023-01-11T12:30:46.093Z,5.03
2023-01-11T12:33:23.340Z,7.97
2023-01-11T12:36:25.365Z,6.55
2023-01-11T12:39:02.750Z,5.18
2023-01-11T12:41:44.388Z,3.15
2023-01-11T12:44:38.308Z,3.65
2023-01-11T12:47:35.739Z,5.63
2023-01-11T12:50:04.318Z,5.40
2023-01-11T12:52:58.711Z,3.88
2023-01-11T12:55:57.315Z,4.43
2023-01-11T12:58:36.119Z,4.80
2023-01-11T13:01:12.733Z,2.33
2023-01-11T13:03:48.650Z,3.05
2023-01-11T13:06:19.253Z,3.47
2023-01-11T13:09:03.206Z,2.67
2023-01-11T13:11:35.551Z,5.63
2023-01-11T13:14:07.960Z,5.40
2023-01-11T13:16:51.928Z,5.00
2023-01-11T13:19:26.778Z,6.22
2023-01-11T13:21:56.628Z,4.20
2023-01-11T13:24:28.918Z,3.80
2023-01-11T13:27:04.358Z,4.90
2023-01-11T13:29:39.756Z,4.43
2023-01-11T13:32:36.436Z,2.72
2023-01-11T13:35:17.619Z,2.22
2023-01-11T13:38:09.322Z,5.22
2023-01-11T13:40:42.333Z,3.25
2023-01-11T13:43:21.136Z,4.68
2023-01-11T13:45:52.415Z,4.75
2023-01-11T13:48:25.683Z,5.72
2023-01-11T13:51:10.989Z,4.45
2023-01-11T13:54:26.991Z,4.05
2023-01-11T13:57:02.227Z,5.75
2023-01-11T13:59:34.963Z,4.22
2023-01-11T14:02:30.557Z,4.60
2023-01-11T14:05:18.429Z,3.03
2023-01-11T14:07:45.292Z,1.73
2023-01-11T14:10:25.209Z,5.63
2023-01-11T14:13:36.302Z,5.50
2023-01-11T14:16:13.436Z,5.00
2023-01-11T14:18:51.757Z,4.57
2023-01-11T14:21:26.489Z,4.85
2023-01-11T14:23:55.128Z,3.80
2023-01-11T14:26:39.217Z,4.10
2023-01-11T14:29:25.884Z,6.10
2023-01-11T14:32:23.547Z,2.83
2023-01-11T14:35:32.693Z,3.95
2023-01-11T14:38:18.159Z,3.78
2023-01-11T14:41:16.135Z,3.23
2023-01-11T14:44:22.445Z,4.35
2023-01-11T14:47:15.719Z,5.50
2023-01-11T14:50:12.008Z,5.00
2023-01-11T14:52:40.974Z,5.68
2023-01-11T14:55:23.271Z,3.42
2023-01-11T14:57:55.944Z,3.22
2023-01-11T15:00:22.410Z,5.38
2023-01-11T15:03:12.779Z,3.28
2023-01-11T15:05:46.749Z,3.67
2023-01-11T15:08:13.277Z,4.22
2023-01-11T15:10:59.157Z,4.20
2023-01-11T15:13:31.532Z,3.22
2023-01-11T15:16:39.775Z,4.47
2023-01-11T15:19:12.580Z,7.43
2023-01-11T15:21:48.251Z,3.72
2023-01-11T15:24:25.186Z,4.35
2023-01-11T15:26:52.570Z,3.67
2023-01-11T15:29:34.795Z,5.63
2023-01-11T15:32:01.460Z,3.47
2023-01-11T15:34:39.151Z,3.97
2023-01-11T15:37:24.164Z,4.03
2023-01-11T15:40:29.189Z,5.28
2023-01-11T15:43:07.630Z,3.83
2023-01-11T15:46:18.504Z,4.47
2023-01-11T15:48:50.735Z,3.90
2023-01-11T15:51:27.537Z,3.65
2023-01-11T15:54:15.460Z,5.28
2023-01-11T15:57:20.087Z,4.20
2023-01-11T15:59:56.607Z,6.35
2023-01-11T16:02:49.675Z,5.22
2023-01-11T16:05:23.671Z,3.17
2023-01-11T16:07:56.553Z,4.82
2023-01-11T16:10:27.803Z,4.55
2023-01-11T16:13:07.096Z,4.05
2023-01-11T16:15:49.631Z,3.30
2023-01-11T16:18:27.329Z,2.35
2023-01-11T16:21:26.307Z,4.47
2023-01-11T16:23:54.278Z,3.08
2023-01-11T16:26:21.719Z,3.50
2023-01-11T16:28:50.733Z,6.97
2023-01-11T16:31:18.146Z,9.77
2023-01-11T16:33:45.529Z,2.22
2023-01-11T16:36:23.282Z,3.90
2023-01-11T16:38:59.752Z,5.07
2023-01-11T16:41:32.210Z,7.60
2023-01-11T16:44:06.804Z,3.30
2023-01-11T16:46:45.207Z,3.72
2023-01-11T16:49:19.151Z,4.78
2023-01-11T16:51:47.657Z,3.90
2023-01-11T16:54:26.381Z,3.30
2023-01-11T16:56:54.973Z,4.13
2023-01-11T16:59:27.269Z,3.00
2023-01-11T17:01:56.801Z,4.00
2023-01-11T17:04:29.382Z,5.75
2023-01-11T17:06:57.188Z,6.32
2023-01-11T17:09:25.893Z,6.47
2023-01-11T17:11:53.126Z,6.18
2023-01-11T17:14:34.627Z,4.28
2023-01-11T17:17:07.180Z,4.65
2023-01-11T17:19:37.619Z,3.58
2023-01-11T17:22:07.719Z,5.78
2023-01-11T17:24:41.114Z,6.05
2023-01-11T17:27:18.206Z,6.47
2023-01-11T17:29:47.471Z,5.93
2023-01-11T17:32:20.952Z,4.82
2023-01-11T17:34:49.908Z,3.35
2023-01-11T17:37:18.536Z,3.58
2023-01-11T17:39:52.184Z,3.90
2023-01-11T17:42:37.531Z,4.47
2023-01-11T17:45:23.946Z,5.40
2023-01-11T17:47:53.835Z,4.93
2023-01-11T17:50:45.792Z,6.05
2023-01-11T17:53:17.505Z,6.05
2023-01-11T17:56:01.950Z,6.10
2023-01-11T17:58:38.603Z,7.32
2023-01-11T18:01:07.598Z,3.40
2023-01-11T18:03:43.316Z,3.97
2023-01-11T18:06:41.956Z,5.95
2023-01-11T18:09:22.281Z,5.70
2023-01-11T18:11:51.341Z,4.07
2023-01-11T18:14:29.602Z,5.88
2023-01-11T18:17:07.077Z,4.60
2023-01-11T18:19:44.432Z,4.57
2023-01-11T18:22:35.219Z,5.45
2023-01-11T18:25:14.698Z,5.82
2023-01-11T18:27:46.381Z,8.82
2023-01-11T18:30:31.408Z,4.07
2023-01-11T18:33:03.018Z,5.55
2023-01-11T18:35:30.462Z,3.78
2023-01-11T18:37:57.029Z,6.53
2023-01-11T18:40:24.151Z,8.05
2023-01-11T18:42:53.183Z,9.05
2023-01-11T18:45:20.283Z,4.70
2023-01-11T18:47:46.910Z,3.78
2023-01-11T18:50:14.122Z,7.75
2023-01-11T18:52:41.232Z,5.57
2023-01-11T18:55:11.132Z,4.20
2023-01-11T18:57:37.687Z,8.43
2023-01-11T19:00:05.579Z,7.70
2023-01-11T19:02:42.526Z,5.38
2023-01-11T19:05:12.130Z,3.97
2023-01-11T19:07:38.699Z,3.60
2023-01-11T19:10:05.837Z,6.00
2023-01-11T19:12:32.626Z,5.93
2023-01-11T19:14:59.345Z,6.88
2023-01-11T19:17:29.277Z,4.55
2023-01-11T19:19:55.975Z,10.90
2023-01-11T19:22:26.134Z,4.03
2023-01-11T19:24:53.537Z,4.95
2023-01-11T19:27:20.678Z,7.20
2023-01-11T19:29:47.242Z,2.85
2023-01-11T19:32:15.719Z,5.35
2023-01-11T19:34:42.814Z,7.40
2023-01-11T19:37:09.379Z,4.50
2023-01-11T19:39:36.440Z,4.03
2023-01-11T19:42:03.665Z,5.10
2023-01-11T19:44:32.743Z,6.20
2023-01-11T19:47:10.831Z,7.18
2023-01-11T19:49:40.009Z,7.32
2023-01-11T19:52:12.995Z,4.43
2023-01-11T19:54:43.539Z,4.10
2023-01-11T19:57:15.261Z,2.97
2023-01-11T19:59:42.825Z,6.10
2023-01-11T20:02:11.866Z,5.72
2023-01-11T20:04:38.861Z,4.75
2023-01-11T20:07:06.773Z,4.40
2023-01-11T20:09:33.440Z,5.35
2023-01-11T20:12:00.054Z,4.60
2023-01-11T20:14:27.009Z,4.13
2023-01-11T20:16:54.256Z,4.57
2023-01-11T20:19:20.812Z,3.83
2023-01-11T20:21:47.347Z,3.70
2023-01-11T20:24:14.745Z,3.50
2023-01-11T20:26:42.206Z,4.75
2023-01-11T20:29:09.145Z,4.40
2023-01-11T20:31:36.430Z,5.05
2023-01-11T20:34:08.784Z,2.90
2023-01-11T20:36:36.103Z,6.93
2023-01-11T20:39:04.754Z,3.17
2023-01-11T20:41:46.820Z,3.70
2023-01-11T20:44:16.136Z,2.88
2023-01-11T20:46:45.698Z,4.00
2023-01-11T20:49:13.830Z,5.40
2023-01-11T20:51:40.795Z,7.28
2023-01-11T20:54:07.878Z,5.85
2023-01-11T20:56:35.786Z,5.53
2023-01-11T20:59:02.558Z,3.60
2023-01-11T21:01:30.206Z,4.68
2023-01-11T21:04:02.668Z,3.95
2023-01-11T21:06:31.381Z,5.50
2023-01-11T21:08:59.602Z,3.38
2023-01-11T21:11:26.892Z,1.52
2023-01-11T21:13:55.541Z,2.65
2023-01-11T21:16:24.542Z,3.42
2023-01-11T21:18:56.277Z,2.95
2023-01-11T21:21:23.540Z,1.38
2023-01-11T21:23:54.587Z,2.22
2023-01-11T21:26:21.746Z,4.88
2023-01-11T21:28:53.816Z,3.17
2023-01-11T21:31:23.523Z,4.78
2023-01-11T21:33:50.866Z,2.92
2023-01-11T21:36:20.195Z,3.60
2023-01-11T21:38:47.318Z,2.78
2023-01-11T21:41:39.794Z,4.32
2023-01-11T21:44:07.656Z,3.72
2023-01-11T21:46:35.008Z,2.08
2023-01-11T21:49:02.254Z,4.82
2023-01-11T21:51:30.005Z,3.28
2023-01-11T21:53:57.797Z,3.40
2023-01-11T21:56:25.051Z,3.10
2023-01-11T21:58:52.953Z,3.60
2023-01-11T22:01:21.624Z,4.93
2023-01-11T22:03:48.242Z,5.40
2023-01-11T22:06:18.114Z,4.75
2023-01-11T22:08:46.101Z,3.35
2023-01-11T22:11:15.541Z,5.32
2023-01-11T22:13:42.700Z,2.78
2023-01-11T22:16:18.253Z,4.93
2023-01-11T22:18:46.348Z,5.95
2023-01-11T22:21:18.988Z,1.55
2023-01-11T22:23:46.989Z,3.08
2023-01-11T22:26:17.887Z,4.13
2023-01-11T22:29:04.836Z,3.28
2023-01-11T22:31:33.207Z,5.78
2023-01-11T22:34:00.640Z,3.55
2023-01-11T22:36:28.494Z,3.75
2023-01-11T22:38:55.947Z,1.73
2023-01-11T22:41:24.398Z,2.65
2023-01-11T22:43:52.042Z,4.15
2023-01-11T22:46:20.611Z,6.53
2023-01-11T22:48:48.737Z,3.80
2023-01-11T22:51:22.948Z,3.72
2023-01-11T22:53:51.277Z,4.18
2023-01-11T22:56:19.909Z,2.92
2023-01-11T22:58:47.897Z,3.38
2023-01-11T23:01:16.209Z,3.85
2023-01-11T23:03:43.665Z,3.20
2023-01-11T23:06:10.777Z,3.63
2023-01-11T23:08:40.923Z,2.33
2023-01-11T23:11:09.294Z,3.58
2023-01-11T23:13:55.253Z,3.47
2023-01-11T23:16:22.823Z,5.75
2023-01-11T23:18:49.902Z,6.68
2023-01-11T23:21:17.147Z,5.78
2023-01-11T23:23:43.980Z,4.00
2023-01-11T23:26:12.235Z,3.75
2023-01-11T23:28:39.696Z,3.63
2023-01-11T23:31:35.171Z,4.38
2023-01-11T23:34:03.218Z,3.30
2023-01-11T23:36:35.656Z,4.45
2023-01-11T23:39:03.581Z,4.93
2023-01-11T23:41:48.844Z,6.10
2023-01-11T23:44:17.079Z,5.28
2023-01-11T23:47:03.242Z,4.78
2023-01-11T23:49:31.476Z,4.05
2023-01-11T23:51:58.614Z,6.22
2023-01-11T23:54:33.550Z,4.80
2023-01-11T23:57:02.182Z,5.87
2023-01-11T23:59:29.399Z,3.63
